Time;durP1;ratioP1;P1;durP2;ratioP2;P2;SDS_P1;SDS_P2;PMS_P1;PMS_P2;Temp;Humidity;BMP_temperature;BMP_pressure;BME280_temperature;BME280_humidity;BME280_pressure;Samples;Min_cycle;Max_cycle;Signal;HPM_P1;HPM_P2
2021/11/25 00:00:07;;;;;;;61.63;33.20;;;-1.10;99.90;;;;;;4979798;28;20010;-74
2021/11/25 00:02:33;;;;;;;71.25;34.25;;;-1.10;99.90;;;;;;4984979;28;20038;-74
2021/11/25 00:04:58;;;;;;;72.05;33.08;;;-1.10;99.90;;;;;;4991213;28;20034;-74
2021/11/25 00:07:24;;;;;;;69.90;33.08;;;-1.20;99.90;;;;;;4995230;28;20031;-74
2021/11/25 00:09:51;;;;;;;65.95;30.92;;;-1.20;99.90;;;;;;4994697;28;20045;-74
2021/11/25 00:12:16;;;;;;;68.22;33.97;;;-1.20;99.90;;;;;;4995208;28;20022;-74
2021/11/25 00:14:42;;;;;;;75.30;34.28;;;-1.20;99.90;;;;;;4990855;28;20026;-74
2021/11/25 00:17:08;;;;;;;69.00;32.25;;;-1.20;99.90;;;;;;4977487;28;20022;-74
2021/11/25 00:19:34;;;;;;;72.97;35.75;;;-1.20;99.90;;;;;;4976318;28;20034;-73
2021/11/25 00:21:59;;;;;;;68.32;34.08;;;-1.20;99.90;;;;;;4993456;28;20018;-74
2021/11/25 00:24:25;;;;;;;71.68;32.88;;;-1.20;99.90;;;;;;4994389;28;20038;-74
2021/11/25 00:26:51;;;;;;;63.22;31.35;;;-1.20;99.90;;;;;;4994905;28;20027;-74
2021/11/25 00:29:16;;;;;;;69.53;34.72;;;-1.20;99.90;;;;;;4994850;28;20022;-74
2021/11/25 00:31:42;;;;;;;65.97;31.40;;;-1.20;99.90;;;;;;4994376;28;20034;-74
2021/11/25 00:34:07;;;;;;;66.95;32.08;;;-1.20;99.90;;;;;;4994621;28;20039;-74
2021/11/25 00:36:33;;;;;;;72.00;32.17;;;-1.20;99.90;;;;;;4994268;28;20038;-74
2021/11/25 00:38:59;;;;;;;64.75;30.58;;;-1.20;99.90;;;;;;4984554;28;20030;-74
2021/11/25 00:41:24;;;;;;;70.40;33.65;;;-1.20;99.90;;;;;;4994235;28;20033;-73
2021/11/25 00:43:50;;;;;;;64.43;32.35;;;-1.30;99.90;;;;;;4977058;28;20117;-74
2021/11/25 00:46:16;;;;;;;67.80;32.85;;;-1.20;99.90;;;;;;4994044;28;20058;-74
2021/11/25 00:48:42;;;;;;;71.13;33.55;;;-1.30;99.90;;;;;;4977009;28;20023;-74
2021/11/25 00:51:07;;;;;;;64.68;30.02;;;-1.30;99.90;;;;;;4976491;28;20101;-74
2021/11/25 00:53:33;;;;;;;56.72;28.70;;;-1.30;99.90;;;;;;4994440;28;20068;-74
2021/11/25 00:55:59;;;;;;;55.20;29.50;;;-1.30;99.90;;;;;;4993637;28;20058;-74
2021/11/25 00:58:24;;;;;;;65.55;29.98;;;-1.30;99.90;;;;;;4994404;28;20480;-74
2021/11/25 01:00:50;;;;;;;66.80;30.63;;;-1.30;99.90;;;;;;4993404;28;20069;-74
2021/11/25 01:03:16;;;;;;;55.92;27.48;;;-1.30;99.90;;;;;;4994254;28;20029;-73
2021/11/25 01:05:42;;;;;;;58.97;27.67;;;-1.30;99.90;;;;;;4993441;28;20105;-74
2021/11/25 01:08:07;;;;;;;57.33;28.35;;;-1.30;99.90;;;;;;4994059;28;20041;-74
2021/11/25 01:10:34;;;;;;;54.13;28.45;;;-1.30;99.90;;;;;;4993656;28;20023;-74
2021/11/25 01:12:59;;;;;;;54.75;26.20;;;-1.30;99.90;;;;;;4976311;28;20491;-74
2021/11/25 01:15:31;;;;;;;56.28;27.23;;;-1.30;99.90;;;;;;4993487;28;20018;-74
2021/11/25 01:18:07;;;;;;;47.40;24.50;;;-1.30;99.90;;;;;;4976509;28;20018;-74
2021/11/25 01:20:35;;;;;;;56.47;26.92;;;-1.30;99.90;;;;;;4976178;28;20024;-74
2021/11/25 01:23:03;;;;;;;53.75;26.30;;;-1.30;99.90;;;;;;4976459;28;20018;-74
2021/11/25 01:25:29;;;;;;;56.38;27.48;;;-1.30;99.90;;;;;;4993434;28;20387;-74
2021/11/25 01:27:55;;;;;;;51.55;26.30;;;-1.30;99.90;;;;;;4993864;28;20093;-74
2021/11/25 01:30:21;;;;;;;51.38;25.58;;;-1.30;99.90;;;;;;4993399;28;20110;-74
2021/11/25 01:32:47;;;;;;;50.20;23.95;;;-1.20;99.90;;;;;;4976321;28;20121;-74
2021/11/25 01:35:12;;;;;;;54.42;25.38;;;-1.30;99.90;;;;;;4993097;28;20041;-74
2021/11/25 01:37:39;;;;;;;55.00;27.15;;;-1.20;99.90;;;;;;4993734;28;20015;-75
2021/11/25 01:40:08;;;;;;;57.70;26.83;;;-1.30;99.90;;;;;;4992852;28;20495;-74
2021/11/25 01:42:34;;;;;;;48.38;26.17;;;-1.30;99.90;;;;;;4993781;28;20018;-74
2021/11/25 01:44:59;;;;;;;45.97;24.67;;;-1.30;99.90;;;;;;4975662;28;20045;-74
2021/11/25 01:47:25;;;;;;;51.13;26.70;;;-1.40;99.90;;;;;;4993641;28;20479;-74
2021/11/25 01:49:51;;;;;;;53.70;24.75;;;-1.40;99.90;;;;;;4975653;28;20380;-74
2021/11/25 01:52:16;;;;;;;48.85;26.90;;;-1.40;99.90;;;;;;4976145;28;20388;-74
2021/11/25 01:54:42;;;;;;;48.85;25.52;;;-1.40;99.90;;;;;;4993071;28;20029;-74
2021/11/25 01:57:08;;;;;;;49.38;23.95;;;-1.50;99.90;;;;;;4993514;28;20165;-75
2021/11/25 01:59:36;;;;;;;55.53;26.48;;;-1.40;99.90;;;;;;4992968;28;20026;-74
2021/11/25 02:02:04;;;;;;;52.15;25.85;;;-1.40;99.90;;;;;;4993284;28;20022;-74
2021/11/25 02:04:29;;;;;;;47.75;25.38;;;-1.40;99.90;;;;;;4992892;28;20085;-74
2021/11/25 02:06:55;;;;;;;48.30;22.75;;;-1.40;99.90;;;;;;4993396;28;20018;-74
2021/11/25 02:09:21;;;;;;;40.85;22.23;;;-1.40;99.90;;;;;;4992832;28;20026;-74
2021/11/25 02:11:47;;;;;;;53.88;25.42;;;-1.40;99.90;;;;;;4993334;28;20030;-74
2021/11/25 02:14:12;;;;;;;42.55;24.20;;;-1.40;99.90;;;;;;4997211;28;20054;-74
2021/11/25 02:16:39;;;;;;;47.47;23.02;;;-1.50;99.90;;;;;;4996822;28;20380;-74
2021/11/25 02:19:07;;;;;;;55.05;24.23;;;-1.50;99.90;;;;;;4997165;28;20514;-74
2021/11/25 02:21:33;;;;;;;45.78;24.85;;;-1.50;99.90;;;;;;4996760;28;20069;-74
2021/11/25 02:23:59;;;;;;;44.53;22.38;;;-1.50;99.90;;;;;;4979513;28;20117;-74
2021/11/25 02:26:25;;;;;;;42.40;21.65;;;-1.50;99.90;;;;;;4996653;28;20511;-74
2021/11/25 02:28:50;;;;;;;40.13;21.92;;;-1.50;99.90;;;;;;4997088;28;20024;-74
2021/11/25 02:31:17;;;;;;;42.60;23.80;;;-1.50;99.90;;;;;;4979132;28;20109;-74
2021/11/25 02:33:42;;;;;;;43.28;20.75;;;-1.50;99.90;;;;;;4997011;28;20435;-74
2021/11/25 02:36:09;;;;;;;40.05;21.88;;;-1.50;99.90;;;;;;4978826;28;20113;-74
2021/11/25 02:38:35;;;;;;;43.67;22.13;;;-1.50;99.90;;;;;;4996916;28;20042;-74
2021/11/25 02:41:01;;;;;;;35.15;21.30;;;-1.50;99.90;;;;;;4996366;28;20518;-74
2021/11/25 02:43:30;;;;;;;38.13;20.27;;;-1.50;99.90;;;;;;4996831;28;20014;-74
2021/11/25 02:45:58;;;;;;;34.15;19.75;;;-1.50;99.90;;;;;;4996132;28;20030;-74
2021/11/25 02:48:27;;;;;;;36.53;19.77;;;-1.50;99.90;;;;;;4996548;28;20026;-74
2021/11/25 02:50:55;;;;;;;37.88;20.55;;;-1.60;99.90;;;;;;4996302;28;20096;-74
2021/11/25 02:53:24;;;;;;;39.08;19.58;;;-1.60;99.90;;;;;;4996949;28;20050;-74
2021/11/25 02:55:53;;;;;;;36.17;18.65;;;-1.60;99.90;;;;;;4996099;28;20452;-74
2021/11/25 02:58:19;;;;;;;39.33;20.77;;;-1.60;99.90;;;;;;4996548;28;20499;-74
2021/11/25 03:00:46;;;;;;;38.30;19.13;;;-1.60;99.90;;;;;;4995995;28;20026;-74
2021/11/25 03:03:14;;;;;;;37.40;19.75;;;-1.60;99.90;;;;;;4996434;28;20031;-74
2021/11/25 03:05:45;;;;;;;37.90;19.80;;;-1.60;99.90;;;;;;4978256;28;20559;-74
2021/11/25 03:08:13;;;;;;;34.60;17.75;;;-1.60;99.90;;;;;;4996323;28;20037;-74
2021/11/25 03:10:46;;;;;;;35.22;17.20;;;-1.70;99.90;;;;;;4978439;28;20431;-74
2021/11/25 03:13:14;;;;;;;34.63;16.70;;;-1.70;99.90;;;;;;4996431;28;20465;-74
2021/11/25 03:15:40;;;;;;;34.40;18.27;;;-1.70;99.90;;;;;;4995598;28;20026;-74
2021/11/25 03:18:07;;;;;;;35.28;19.05;;;-1.70;99.90;;;;;;4978792;28;20074;-74
2021/11/25 03:20:33;;;;;;;31.63;16.90;;;-1.70;99.90;;;;;;4978159;28;20026;-74
2021/11/25 03:22:59;;;;;;;37.30;17.70;;;-1.70;99.90;;;;;;4974788;28;20015;-74
2021/11/25 03:25:25;;;;;;;30.52;17.25;;;-1.80;99.90;;;;;;4984848;28;20046;-74
2021/11/25 03:27:52;;;;;;;37.15;18.67;;;-1.80;99.90;;;;;;4995558;28;20030;-74
2021/11/25 03:30:18;;;;;;;35.10;18.42;;;-1.80;99.90;;;;;;4995495;28;20480;-73
2021/11/25 03:32:44;;;;;;;39.05;18.42;;;-1.80;99.90;;;;;;4995517;28;20027;-74
2021/11/25 03:35:10;;;;;;;30.38;16.58;;;-1.80;99.90;;;;;;4994600;28;20036;-74
2021/11/25 03:37:36;;;;;;;33.78;18.45;;;-1.80;99.90;;;;;;4978315;28;20030;-74
2021/11/25 03:40:05;;;;;;;34.70;17.83;;;-1.70;99.90;;;;;;4995234;28;20097;-74
2021/11/25 03:42:30;;;;;;;35.28;16.77;;;-1.70;99.90;;;;;;4995700;28;20076;-74
2021/11/25 03:44:56;;;;;;;33.05;17.63;;;-1.70;99.90;;;;;;4994727;28;20042;-74
2021/11/25 03:47:21;;;;;;;37.22;19.60;;;-1.70;99.90;;;;;;4995681;28;20018;-75
2021/11/25 03:49:47;;;;;;;31.33;16.55;;;-1.60;99.90;;;;;;4995159;28;20030;-74
2021/11/25 03:52:13;;;;;;;34.53;18.85;;;-1.60;99.90;;;;;;4995647;28;20050;-74
2021/11/25 03:54:39;;;;;;;32.08;16.85;;;-1.70;99.90;;;;;;4983374;28;20026;-74
2021/11/25 03:57:05;;;;;;;34.50;17.60;;;-1.70;99.90;;;;;;4995468;28;20110;-74
2021/11/25 03:59:31;;;;;;;34.75;16.77;;;-1.70;99.90;;;;;;4977501;28;20022;-74
2021/11/25 04:01:56;;;;;;;31.63;15.98;;;-1.80;99.90;;;;;;4977877;28;20033;-74
2021/11/25 04:04:22;;;;;;;35.45;18.83;;;-1.80;99.90;;;;;;4994541;28;20018;-74
2021/11/25 04:06:48;;;;;;;31.90;18.00;;;-1.80;99.90;;;;;;4977741;28;20069;-74
2021/11/25 04:09:13;;;;;;;29.17;16.17;;;-1.80;99.90;;;;;;4995190;28;20154;-73
2021/11/25 04:11:39;;;;;;;35.00;18.00;;;-1.80;99.90;;;;;;4994778;28;20026;-73
2021/11/25 04:14:05;;;;;;;29.73;16.70;;;-1.90;99.90;;;;;;4995117;28;20105;-73
2021/11/25 04:16:31;;;;;;;31.40;19.58;;;-1.90;99.90;;;;;;4994771;28;20065;-74
2021/11/25 04:18:57;;;;;;;32.95;18.25;;;-1.90;99.90;;;;;;4993788;28;20437;-73
2021/11/25 04:21:23;;;;;;;36.92;19.45;;;-1.90;99.90;;;;;;4982240;28;20026;-74
2021/11/25 04:23:49;;;;;;;34.28;16.48;;;-1.90;99.90;;;;;;4977442;28;20034;-74
2021/11/25 04:26:15;;;;;;;35.88;17.67;;;-1.90;99.90;;;;;;4994441;28;20399;-74
2021/11/25 04:28:41;;;;;;;36.78;17.27;;;-1.90;99.90;;;;;;4994943;28;20018;-75
2021/11/25 04:36:35;;;;;;;33.90;18.25;;;-1.90;99.90;;;;;;4994016;28;20671;-74
2021/11/25 04:39:05;;;;;;;28.70;17.08;;;-1.80;99.90;;;;;;4994706;28;20126;-73
2021/11/25 04:41:30;;;;;;;34.60;18.52;;;-1.90;99.90;;;;;;4976957;28;20026;-73
2021/11/25 04:43:56;;;;;;;28.83;16.65;;;-1.80;99.90;;;;;;4994505;28;20030;-74
2021/11/25 04:46:22;;;;;;;39.85;18.17;;;-1.80;99.90;;;;;;4976608;28;20018;-73
2021/11/25 04:48:47;;;;;;;34.97;19.17;;;-1.80;99.90;;;;;;4994313;28;20022;-74
2021/11/25 04:51:13;;;;;;;35.95;19.17;;;-1.70;99.90;;;;;;4993998;28;20113;-73
2021/11/25 04:53:39;;;;;;;34.92;19.85;;;-1.70;99.90;;;;;;4994525;28;20097;-73
2021/11/25 04:56:05;;;;;;;36.13;18.48;;;-1.70;99.90;;;;;;4993897;28;20519;-74
2021/11/25 04:58:30;;;;;;;37.65;19.48;;;-1.70;99.90;;;;;;4994000;28;20081;-73
2021/11/25 05:00:56;;;;;;;39.15;19.65;;;-1.80;99.90;;;;;;4993735;28;20034;-74
2021/11/25 05:03:22;;;;;;;36.67;19.33;;;-1.80;99.90;;;;;;4994160;28;20025;-74
2021/11/25 05:05:47;;;;;;;45.13;19.67;;;-1.80;99.90;;;;;;4976150;28;20030;-74
2021/11/25 05:08:13;;;;;;;42.38;18.75;;;-1.80;99.90;;;;;;4976694;28;20023;-73
2021/11/25 05:10:40;;;;;;;36.30;21.15;;;-1.80;99.90;;;;;;4976164;28;20076;-74
2021/11/25 05:13:06;;;;;;;38.10;20.77;;;-1.80;99.90;;;;;;4994108;28;20026;-74
2021/11/25 05:15:32;;;;;;;38.20;21.00;;;-1.80;99.90;;;;;;4993632;28;20443;-74
2021/11/25 05:17:58;;;;;;;42.22;22.70;;;-1.80;99.90;;;;;;4994030;28;20034;-74
2021/11/25 05:20:23;;;;;;;40.60;21.98;;;-1.80;99.90;;;;;;4993408;28;20031;-74
2021/11/25 05:22:50;;;;;;;42.78;22.50;;;-1.80;99.90;;;;;;4993760;28;20042;-73
2021/11/25 05:25:16;;;;;;;43.17;21.23;;;-1.90;99.90;;;;;;4993425;28;20565;-74
2021/11/25 05:27:44;;;;;;;42.70;21.05;;;-2.00;99.90;;;;;;4976325;28;20105;-74
2021/11/25 05:30:10;;;;;;;35.22;20.50;;;-2.00;99.90;;;;;;4975862;28;20492;-74
2021/11/25 05:32:37;;;;;;;45.15;22.80;;;-2.00;99.90;;;;;;4993751;28;20027;-74
2021/11/25 05:35:03;;;;;;;38.83;22.05;;;-2.10;99.90;;;;;;4993355;28;20038;-74
2021/11/25 05:37:29;;;;;;;60.30;27.38;;;-2.10;99.90;;;;;;4976357;28;20033;-73
2021/11/25 05:39:55;;;;;;;64.32;31.20;;;-2.10;99.90;;;;;;4993181;28;20022;-73
2021/11/25 05:42:20;;;;;;;43.78;22.00;;;-2.10;99.90;;;;;;4976251;28;20018;-74
2021/11/25 05:44:46;;;;;;;47.60;24.35;;;-2.10;99.90;;;;;;4975052;28;20080;-74
2021/11/25 05:47:12;;;;;;;57.67;27.42;;;-2.10;99.90;;;;;;4990677;28;20022;-74
2021/11/25 05:49:38;;;;;;;55.00;26.92;;;-2.10;99.90;;;;;;4991076;28;20464;-74
2021/11/25 05:52:04;;;;;;;48.80;25.45;;;-2.10;99.90;;;;;;4992027;28;20070;-74
2021/11/25 05:54:31;;;;;;;48.90;25.10;;;-2.10;99.90;;;;;;4991639;28;20479;-73
2021/11/25 05:56:57;;;;;;;51.67;24.58;;;-2.10;99.90;;;;;;4978921;28;20392;-74
2021/11/25 05:59:23;;;;;;;52.00;26.63;;;-2.10;99.90;;;;;;4991891;28;20464;-74
2021/11/25 06:01:49;;;;;;;48.85;23.85;;;-2.10;99.90;;;;;;4992241;28;20159;-74
2021/11/25 06:04:15;;;;;;;49.17;24.60;;;-2.10;99.90;;;;;;4992721;28;20046;-74
2021/11/25 06:06:40;;;;;;;50.35;24.67;;;-2.10;99.90;;;;;;4993217;28;20064;-74
2021/11/25 06:09:06;;;;;;;72.03;35.42;;;-2.10;99.90;;;;;;4993197;28;20430;-74
2021/11/25 06:11:32;;;;;;;45.38;26.48;;;-2.10;99.90;;;;;;4992795;28;20113;-74
2021/11/25 06:13:57;;;;;;;53.85;25.52;;;-2.10;99.90;;;;;;4993286;28;20022;-74
2021/11/25 06:16:23;;;;;;;49.88;25.63;;;-2.10;99.90;;;;;;4992053;28;20480;-75
2021/11/25 06:18:49;;;;;;;61.35;26.02;;;-2.10;99.90;;;;;;4976024;28;20023;-74
2021/11/25 06:21:14;;;;;;;50.75;25.00;;;-2.10;99.90;;;;;;4976353;28;20125;-74
2021/11/25 06:23:41;;;;;;;51.28;23.75;;;-2.10;99.90;;;;;;4991445;28;20026;-74
2021/11/25 06:26:07;;;;;;;57.00;27.45;;;-2.10;99.90;;;;;;4978736;28;20042;-73
2021/11/25 06:28:33;;;;;;;57.40;28.75;;;-2.10;99.90;;;;;;4991042;28;20391;-73
2021/11/25 06:30:59;;;;;;;49.40;25.13;;;-2.10;99.90;;;;;;4990615;28;20030;-73
2021/11/25 06:33:25;;;;;;;52.03;26.33;;;-2.10;99.90;;;;;;4990972;28;20033;-73
2021/11/25 06:35:51;;;;;;;50.13;26.13;;;-2.10;99.90;;;;;;4991614;28;20057;-74
2021/11/25 06:38:19;;;;;;;52.42;24.45;;;-2.10;99.90;;;;;;4975188;28;20066;-74
2021/11/25 06:40:44;;;;;;;54.50;23.88;;;-2.10;99.90;;;;;;4980019;28;20027;-74
2021/11/25 06:43:11;;;;;;;60.10;28.33;;;-2.10;99.90;;;;;;4991457;28;20448;-74
2021/11/25 06:45:37;;;;;;;77.00;37.08;;;-2.20;99.90;;;;;;4989960;28;20038;-73
2021/11/25 06:48:04;;;;;;;83.22;39.63;;;-2.20;99.90;;;;;;4991171;28;20045;-73
2021/11/25 06:50:30;;;;;;;88.43;39.88;;;-2.30;99.90;;;;;;4990154;28;20377;-74
2021/11/25 06:52:56;;;;;;;91.40;39.67;;;-2.30;99.90;;;;;;4991823;28;20038;-73
2021/11/25 06:55:23;;;;;;;92.60;40.83;;;-2.30;99.90;;;;;;4991176;28;20053;-73
2021/11/25 06:57:50;;;;;;;90.13;40.97;;;-2.30;99.90;;;;;;4991275;28;20519;-74
2021/11/25 07:00:23;;;;;;;95.35;40.58;;;-2.30;99.90;;;;;;4994515;28;20052;-73
2021/11/25 07:02:53;;;;;;;85.93;42.70;;;-2.30;99.90;;;;;;4977324;28;20035;-74
2021/11/25 07:05:19;;;;;;;95.30;46.20;;;-2.30;99.90;;;;;;4994973;28;20040;-74
2021/11/25 07:07:44;;;;;;;93.22;45.97;;;-2.30;99.90;;;;;;4994761;28;20069;-73
2021/11/25 07:10:14;;;;;;;77.70;39.22;;;-2.20;99.90;;;;;;4993126;28;20487;-74
2021/11/25 07:12:41;;;;;;;89.13;40.80;;;-2.20;99.90;;;;;;4975287;28;20130;-74
2021/11/25 07:15:12;;;;;;;72.07;36.78;;;-2.20;99.90;;;;;;4975466;28;20022;-73
2021/11/25 07:17:38;;;;;;;83.38;39.83;;;-2.10;99.90;;;;;;4975500;28;20034;-74
2021/11/25 07:20:05;;;;;;;96.95;38.60;;;-2.10;99.90;;;;;;4992166;28;20494;-74
2021/11/25 07:22:33;;;;;;;65.85;36.63;;;-2.00;99.90;;;;;;4991925;28;20069;-74
2021/11/25 07:24:59;;;;;;;59.10;31.25;;;-2.00;99.90;;;;;;4991132;28;20507;-74
2021/11/25 07:27:25;;;;;;;61.33;30.08;;;-1.90;99.90;;;;;;4993924;28;20550;-74
2021/11/25 07:29:52;;;;;;;71.57;34.67;;;-1.80;99.90;;;;;;4995070;28;20072;-74
2021/11/25 07:32:18;;;;;;;71.47;34.45;;;-1.70;99.90;;;;;;4995995;28;20105;-74
2021/11/25 07:34:44;;;;;;;75.32;37.97;;;-1.70;99.90;;;;;;4995529;28;20026;-74
2021/11/25 07:37:09;;;;;;;83.05;40.15;;;-1.50;99.90;;;;;;4995834;28;20026;-74
2021/11/25 07:39:35;;;;;;;102.20;42.40;;;-1.40;99.90;;;;;;4994073;28;20026;-74
2021/11/25 07:42:01;;;;;;;87.20;44.28;;;-1.30;99.90;;;;;;4994843;28;20050;-74
2021/11/25 07:44:27;;;;;;;103.60;49.35;;;-1.20;99.90;;;;;;4977629;28;20471;-74
2021/11/25 07:46:53;;;;;;;92.82;48.20;;;-1.10;99.90;;;;;;4994687;28;20025;-74
2021/11/25 07:49:20;;;;;;;119.50;64.57;;;-1.00;99.90;;;;;;4994851;28;20085;-74
2021/11/25 07:51:46;;;;;;;154.23;70.63;;;-0.90;99.90;;;;;;4995499;28;20023;-74
2021/11/25 07:54:12;;;;;;;160.38;75.10;;;-0.70;99.90;;;;;;4995081;28;20451;-74
2021/11/25 07:56:39;;;;;;;140.68;69.32;;;-0.60;99.90;;;;;;4977611;28;20026;-74
2021/11/25 07:59:05;;;;;;;115.22;54.58;;;-0.50;99.90;;;;;;4995372;28;20033;-74
2021/11/25 08:01:32;;;;;;;84.35;44.15;;;-0.40;99.90;;;;;;4994602;28;20023;-75
2021/11/25 08:03:58;;;;;;;78.22;39.33;;;-0.30;99.90;;;;;;4994759;28;20383;-74
2021/11/25 08:06:23;;;;;;;87.15;43.35;;;-0.10;99.90;;;;;;4994333;28;20031;-75
2021/11/25 08:08:49;;;;;;;74.38;38.10;;;0.00;99.90;;;;;;4994825;28;20072;-75
2021/11/25 08:11:15;;;;;;;82.50;45.35;;;0.10;99.90;;;;;;4993603;28;20109;-74
2021/11/25 08:13:41;;;;;;;82.00;42.55;;;0.20;99.90;;;;;;4977289;28;20473;-74
2021/11/25 08:16:08;;;;;;;75.43;42.08;;;0.30;99.90;;;;;;4976770;28;20026;-74
2021/11/25 08:18:34;;;;;;;77.28;37.70;;;0.40;99.90;;;;;;4994720;28;20022;-73
2021/11/25 08:21:00;;;;;;;64.60;35.03;;;0.50;99.90;;;;;;4984841;28;20018;-74
2021/11/25 08:23:25;;;;;;;64.40;34.85;;;0.60;99.90;;;;;;4994609;28;20049;-74
2021/11/25 08:25:51;;;;;;;58.30;32.15;;;0.70;99.90;;;;;;4994095;28;20026;-74
2021/11/25 08:28:17;;;;;;;66.50;32.97;;;0.70;99.90;;;;;;4977102;28;20023;-74
2021/11/25 08:30:43;;;;;;;73.45;37.83;;;0.70;99.90;;;;;;4994376;28;20129;-74
2021/11/25 08:33:09;;;;;;;56.95;29.08;;;0.80;99.90;;;;;;4979626;28;20491;-74
2021/11/25 08:35:35;;;;;;;49.45;26.80;;;0.80;99.90;;;;;;4970450;28;20443;-74
2021/11/25 08:38:02;;;;;;;51.25;26.08;;;0.90;99.90;;;;;;4985455;28;20023;-74
2021/11/25 08:40:29;;;;;;;47.83;28.00;;;1.00;99.90;;;;;;4977260;28;20034;-74
2021/11/25 08:42:55;;;;;;;50.38;25.73;;;1.10;99.90;;;;;;4994127;28;20488;-74
2021/11/25 08:45:22;;;;;;;69.18;32.60;;;1.10;99.90;;;;;;4994357;28;20038;-74
2021/11/25 08:47:48;;;;;;;61.88;29.27;;;1.20;99.90;;;;;;4994155;28;20018;-73
2021/11/25 08:50:15;;;;;;;60.58;27.58;;;1.20;99.90;;;;;;4993613;28;20526;-74
2021/11/25 08:52:41;;;;;;;56.08;26.55;;;1.20;99.90;;;;;;4993996;28;20022;-75
2021/11/25 08:55:07;;;;;;;60.72;29.30;;;1.30;99.90;;;;;;4993480;28;20080;-74
2021/11/25 08:57:34;;;;;;;56.42;27.52;;;1.20;99.90;;;;;;4994031;28;20014;-74
2021/11/25 09:00:00;;;;;;;59.30;28.90;;;1.20;99.90;;;;;;4993210;28;20030;-74
2021/11/25 09:02:25;;;;;;;63.50;32.25;;;1.30;99.90;;;;;;4994372;28;20420;-75
2021/11/25 09:04:51;;;;;;;51.40;28.70;;;1.30;99.90;;;;;;4976210;28;20069;-74
2021/11/25 09:07:17;;;;;;;50.65;28.23;;;1.30;99.90;;;;;;4976787;28;20125;-74
2021/11/25 09:09:43;;;;;;;60.40;28.35;;;1.30;99.90;;;;;;4993361;28;20041;-74
2021/11/25 09:12:09;;;;;;;52.17;26.40;;;1.40;99.90;;;;;;4977242;28;20388;-74
2021/11/25 09:14:34;;;;;;;49.50;24.38;;;1.40;99.90;;;;;;4997422;28;20026;-74
2021/11/25 09:17:00;;;;;;;44.42;22.42;;;1.40;99.90;;;;;;4993645;28;20100;-74
2021/11/25 09:19:26;;;;;;;49.95;24.23;;;1.50;99.90;;;;;;4976183;28;20029;-74
2021/11/25 09:21:52;;;;;;;62.97;28.60;;;1.50;99.90;;;;;;4994011;28;20057;-76
2021/11/25 09:24:18;;;;;;;50.63;24.80;;;1.50;99.90;;;;;;4975825;28;20038;-74
2021/11/25 09:26:43;;;;;;;55.60;29.30;;;1.50;99.90;;;;;;4993541;28;20061;-74
2021/11/25 09:29:10;;;;;;;59.53;28.98;;;1.60;99.90;;;;;;4993808;28;20018;-74
2021/11/25 09:31:36;;;;;;;44.78;25.10;;;1.60;99.90;;;;;;4993483;28;20019;-74
2021/11/25 09:34:04;;;;;;;56.40;28.55;;;1.70;99.90;;;;;;4993138;28;20053;-74
2021/11/25 09:36:31;;;;;;;51.35;27.42;;;1.80;99.90;;;;;;4992997;28;20042;-74
2021/11/25 09:38:58;;;;;;;59.83;29.20;;;1.80;99.90;;;;;;4992144;28;20483;-74
2021/11/25 09:41:24;;;;;;;52.50;28.80;;;1.80;99.90;;;;;;4991505;28;20030;-74
2021/11/25 09:43:50;;;;;;;55.03;27.90;;;1.90;99.90;;;;;;4991556;28;20073;-74
2021/11/25 09:46:16;;;;;;;51.35;26.55;;;1.90;99.90;;;;;;4991022;28;20034;-74
2021/11/25 09:48:41;;;;;;;51.70;28.23;;;2.00;99.90;;;;;;4991569;28;20069;-74
2021/11/25 09:51:08;;;;;;;45.88;25.50;;;2.10;99.90;;;;;;4974426;28;20038;-74
2021/11/25 09:53:36;;;;;;;55.63;24.30;;;2.20;99.90;;;;;;4979994;28;20015;-74
2021/11/25 09:56:02;;;;;;;41.22;24.30;;;2.10;99.90;;;;;;4993015;28;20022;-74
2021/11/25 09:58:30;;;;;;;39.42;22.15;;;2.10;99.90;;;;;;4976046;28;20109;-74
2021/11/25 10:01:04;;;;;;;35.65;21.45;;;2.10;99.90;;;;;;4992962;28;20031;-74
2021/11/25 10:03:31;;;;;;;42.10;22.75;;;2.10;99.90;;;;;;4993479;28;20431;-74
2021/11/25 10:05:57;;;;;;;48.08;24.42;;;2.20;99.90;;;;;;4975418;28;20076;-74
2021/11/25 10:08:23;;;;;;;45.13;22.55;;;2.30;99.90;;;;;;4976114;28;20022;-75
2021/11/25 10:10:59;;;;;;;43.42;23.55;;;2.40;99.90;;;;;;4992868;28;20034;-74
2021/11/25 10:13:37;;;;;;;42.03;22.15;;;2.40;99.90;;;;;;4993470;28;20035;-74
2021/11/25 10:16:03;;;;;;;41.47;20.00;;;2.50;99.90;;;;;;4978600;28;20026;-75
2021/11/25 10:18:36;;;;;;;39.40;22.80;;;2.50;99.90;;;;;;4993127;28;20034;-75
2021/11/25 10:21:09;;;;;;;;;;;2.40;99.90;;;;;;4993267;28;20054;-74
2021/11/25 10:23:36;;;;;;;44.85;20.55;;;2.50;99.90;;;;;;4993404;28;20371;-74
2021/11/25 10:26:06;;;;;;;36.63;21.17;;;2.50;99.90;;;;;;4992624;28;20053;-74
2021/11/25 10:28:47;;;;;;;41.45;20.48;;;2.60;99.90;;;;;;4993168;28;20069;-74
2021/11/25 10:31:15;;;;;;;42.45;22.95;;;2.70;99.90;;;;;;4991358;28;20045;-74
2021/11/25 10:41:57;;;;;;;40.10;21.45;;;2.70;99.90;;;;;;4977068;28;19905;-74
2021/11/25 10:44:28;;;;;;;45.95;23.15;;;2.70;99.90;;;;;;4977449;28;20113;-74
2021/11/25 10:47:10;;;;;;;46.20;22.98;;;2.80;99.50;;;;;;4996274;28;20210;-74
2021/11/25 10:49:44;;;;;;;38.55;22.70;;;2.80;98.90;;;;;;4978631;28;20027;-74
2021/11/25 10:52:37;;;;;;;41.08;22.80;;;2.90;98.20;;;;;;4994923;28;20026;-74
2021/11/25 10:55:15;;;;;;;41.72;21.83;;;2.90;97.60;;;;;;4994221;28;20068;-74
2021/11/25 10:57:45;;;;;;;43.28;21.63;;;2.90;96.80;;;;;;4994699;28;20031;-74
2021/11/25 11:00:11;;;;;;;40.33;22.20;;;3.00;97.20;;;;;;4994111;28;20022;-74
2021/11/25 11:02:37;;;;;;;37.30;21.30;;;3.00;97.40;;;;;;4994576;28;20022;-74
2021/11/25 11:05:11;;;;;;;41.30;20.83;;;3.10;96.10;;;;;;4993828;28;20096;-75
2021/11/25 11:07:38;;;;;;;35.58;21.70;;;3.10;93.80;;;;;;4996440;28;20018;-74
2021/11/25 11:10:18;;;;;;;37.60;19.00;;;3.20;93.10;;;;;;4995914;28;20472;-74
2021/11/25 11:15:28;;;;;;;39.25;19.95;;;3.30;90.00;;;;;;4995891;28;20030;-74
2021/11/25 11:20:27;;;;;;;32.58;17.98;;;3.50;91.40;;;;;;4995763;28;20369;-74
2021/11/25 11:22:56;;;;;;;27.83;16.05;;;3.50;90.60;;;;;;4996129;28;20023;-74
2021/11/25 11:25:23;;;;;;;34.45;19.67;;;3.60;88.10;;;;;;4977961;28;20069;-74
2021/11/25 11:27:52;;;;;;;31.60;18.20;;;3.70;87.30;;;;;;4978607;28;20018;-75
2021/11/25 11:30:18;;;;;;;33.00;20.20;;;3.70;86.00;;;;;;4995603;28;20022;-74
2021/11/25 11:32:44;;;;;;;33.60;18.92;;;3.80;84.90;;;;;;4996019;28;20025;-74
2021/11/25 11:35:11;;;;;;;32.90;18.13;;;3.90;86.00;;;;;;4995697;28;20041;-74
2021/11/25 11:37:40;;;;;;;32.67;17.08;;;4.00;84.90;;;;;;4995943;28;20026;-75
2021/11/25 11:40:08;;;;;;;28.40;16.05;;;4.00;82.10;;;;;;4995470;28;20431;-74
2021/11/25 11:42:35;;;;;;;35.25;16.88;;;4.10;81.10;;;;;;4995886;28;20037;-75
2021/11/25 11:45:01;;;;;;;34.78;16.20;;;4.10;80.00;;;;;;4994952;28;20053;-74
2021/11/25 11:47:28;;;;;;;32.55;17.10;;;4.20;80.90;;;;;;4978338;28;20072;-74
2021/11/25 11:50:01;;;;;;;30.67;16.80;;;4.20;81.80;;;;;;4977680;28;20018;-74
2021/11/25 11:52:27;;;;;;;32.47;18.25;;;4.30;80.70;;;;;;4995781;28;20106;-74
2021/11/25 11:54:58;;;;;;;35.00;16.15;;;4.30;82.40;;;;;;4977732;28;20045;-74
2021/11/25 11:57:27;;;;;;;30.60;17.48;;;4.40;81.40;;;;;;4995461;28;20022;-74
2021/11/25 11:59:54;;;;;;;33.25;16.23;;;4.40;82.20;;;;;;4995027;28;20033;-74
2021/11/25 12:02:38;;;;;;;29.13;16.85;;;4.40;80.30;;;;;;4994835;28;20019;-75
2021/11/25 12:05:04;;;;;;;39.00;17.90;;;4.50;80.40;;;;;;4977101;28;20081;-74
2021/11/25 12:07:30;;;;;;;33.53;17.20;;;4.50;80.00;;;;;;4991515;28;20054;-75
2021/11/25 12:09:56;;;;;;;32.97;17.95;;;4.50;80.40;;;;;;4984245;28;20110;-74
2021/11/25 12:12:22;;;;;;;42.05;25.83;;;4.50;80.40;;;;;;4994999;28;20033;-75
2021/11/25 12:14:59;;;;;;;50.70;30.05;;;4.60;79.10;;;;;;4993867;28;20022;-75
2021/11/25 12:17:31;;;;;;;34.15;16.70;;;4.60;76.90;;;;;;4971650;28;20022;-74
2021/11/25 12:20:18;;;;;;;27.27;15.23;;;4.60;78.40;;;;;;4981269;28;20077;-74
2021/11/25 12:22:52;;;;;;;39.00;17.02;;;4.60;79.40;;;;;;4993827;28;20026;-74
2021/11/25 12:25:31;;;;;;;35.40;20.48;;;4.70;77.80;;;;;;4992574;28;20500;-74
2021/11/25 12:28:22;;;;;;;22.63;14.15;;;4.70;77.10;;;;;;4994085;28;20098;-74
2021/11/25 12:31:07;;;;;;;30.25;14.35;;;4.80;77.60;;;;;;4982073;28;20062;-74
2021/11/25 12:33:44;;;;;;;24.02;13.85;;;4.80;77.20;;;;;;4981238;28;20109;-74
2021/11/25 12:36:35;;;;;;;28.88;15.80;;;4.90;75.90;;;;;;4990463;28;20157;-74
2021/11/25 12:39:02;;;;;;;23.38;14.25;;;4.90;76.40;;;;;;4980840;28;20353;-74
2021/11/25 12:41:28;;;;;;;24.15;12.75;;;4.90;76.60;;;;;;4967341;28;20015;-75
2021/11/25 12:43:53;;;;;;;23.10;11.63;;;4.90;78.50;;;;;;4990444;28;20479;-75
2021/11/25 12:46:19;;;;;;;23.15;12.82;;;5.00;79.50;;;;;;4989549;28;20129;-74
2021/11/25 12:48:47;;;;;;;17.75;10.93;;;4.90;79.90;;;;;;4980088;28;20025;-74